sensor_id;sensor_type;location;lat;lon;timestamp;P1;durP1;ratioP1;P2;durP2;ratioP2
59653;SDS011;66556;52.008;5.432;2023-02-15T00:00:06;49.5;;;32.6;;
59653;SDS011;66556;52.008;5.432;2023-02-15T00:01:44;48.4;;;31.4;;
59653;SDS011;66556;52.008;5.432;2023-02-15T00:04:58;47.6;;;31.7;;
59653;SDS011;66556;52.008;5.432;2023-02-15T00:06:34;50.4;;;33.1;;
59653;SDS011;66556;52.008;5.432;2023-02-15T00:08:11;53.4;;;34.0;;
59653;SDS011;66556;52.008;5.432;2023-02-15T00:11:39;49.9;;;32.6;;
59653;SDS011;66556;52.008;5.432;2023-02-15T00:13:17;49.6;;;31.7;;
59653;SDS011;66556;52.008;5.432;2023-02-15T00:14:53;53.9;;;32.8;;
59653;SDS011;66556;52.008;5.432;2023-02-15T00:16:29;59.7;;;34.21;;
59653;SDS011;66556;52.008;5.432;2023-02-15T00:19:44;55.1;;;33.71;;
59653;SDS011;66556;52.008;5.432;2023-02-15T00:21:20;62.5;;;35.9;;
59653;SDS011;66556;52.008;5.432;2023-02-15T00:22:57;50.0;;;30.3;;
59653;SDS011;66556;52.008;5.432;2023-02-15T00:26:11;50.2;;;31.3;;
59653;SDS011;66556;52.008;5.432;2023-02-15T00:27:48;57.9;;;34.21;;
59653;SDS011;66556;52.008;5.432;2023-02-15T00:29:25;57.9;;;34.21;;
59653;SDS011;66556;52.008;5.432;2023-02-15T00:31:03;55.4;;;34.0;;
59653;SDS011;66556;52.008;5.432;2023-02-15T00:34:18;58.2;;;34.21;;
59653;SDS011;66556;52.008;5.432;2023-02-15T00:35:56;47.1;;;29.7;;
59653;SDS011;66556;52.008;5.432;2023-02-15T00:37:33;57.8;;;34.31;;
59653;SDS011;66556;52.008;5.432;2023-02-15T00:40:51;49.3;;;32.71;;
59653;SDS011;66556;52.008;5.432;2023-02-15T00:42:28;48.9;;;31.7;;
59653;SDS011;66556;52.008;5.432;2023-02-15T00:44:05;56.2;;;34.71;;
59653;SDS011;66556;52.008;5.432;2023-02-15T00:45:42;59.6;;;35.0;;
59653;SDS011;66556;52.008;5.432;2023-02-15T00:48:57;56.1;;;34.71;;
59653;SDS011;66556;52.008;5.432;2023-02-15T00:50:33;51.3;;;32.21;;
59653;SDS011;66556;52.008;5.432;2023-02-15T00:52:09;52.7;;;33.8;;
59653;SDS011;66556;52.008;5.432;2023-02-15T00:55:22;60.5;;;36.21;;
59653;SDS011;66556;52.008;5.432;2023-02-15T00:56:59;56.2;;;34.21;;
59653;SDS011;66556;52.008;5.432;2023-02-15T00:58:35;61.5;;;36.4;;
59653;SDS011;66556;52.008;5.432;2023-02-15T01:01:49;60.3;;;37.31;;
59653;SDS011;66556;52.008;5.432;2023-02-15T01:03:25;49.8;;;32.4;;
59653;SDS011;66556;52.008;5.432;2023-02-15T01:05:01;64.6;;;38.9;;
59653;SDS011;66556;52.008;5.432;2023-02-15T01:06:37;63.0;;;37.4;;
59653;SDS011;66556;52.008;5.432;2023-02-15T01:09:50;56.0;;;34.21;;
59653;SDS011;66556;52.008;5.432;2023-02-15T01:11:27;65.1;;;39.1;;
59653;SDS011;66556;52.008;5.432;2023-02-15T01:13:03;57.7;;;36.21;;
59653;SDS011;66556;52.008;5.432;2023-02-15T01:16:16;66.6;;;39.31;;
59653;SDS011;66556;52.008;5.432;2023-02-15T01:17:53;56.3;;;35.71;;
59653;SDS011;66556;52.008;5.432;2023-02-15T01:19:30;52.5;;;33.4;;
59653;SDS011;66556;52.008;5.432;2023-02-15T01:22:49;66.91;;;38.4;;
59653;SDS011;66556;52.008;5.432;2023-02-15T01:24:26;65.2;;;40.0;;
59653;SDS011;66556;52.008;5.432;2023-02-15T01:26:03;68.2;;;39.4;;
59653;SDS011;66556;52.008;5.432;2023-02-15T01:27:39;62.9;;;38.81;;
59653;SDS011;66556;52.008;5.432;2023-02-15T01:30:51;63.6;;;38.31;;
59653;SDS011;66556;52.008;5.432;2023-02-15T01:32:28;63.8;;;38.71;;
59653;SDS011;66556;52.008;5.432;2023-02-15T01:34:04;61.4;;;38.9;;
59653;SDS011;66556;52.008;5.432;2023-02-15T01:37:16;60.6;;;38.21;;
59653;SDS011;66556;52.008;5.432;2023-02-15T01:40:29;63.8;;;39.0;;
59653;SDS011;66556;52.008;5.432;2023-02-15T01:42:07;61.0;;;37.31;;
59653;SDS011;66556;52.008;5.432;2023-02-15T01:45:25;63.4;;;37.21;;
59653;SDS011;66556;52.008;5.432;2023-02-15T01:47:04;68.61;;;40.0;;
59653;SDS011;66556;52.008;5.432;2023-02-15T01:48:40;58.5;;;35.81;;
59653;SDS011;66556;52.008;5.432;2023-02-15T01:52:05;64.91;;;39.1;;
59653;SDS011;66556;52.008;5.432;2023-02-15T01:53:43;69.2;;;40.5;;
59653;SDS011;66556;52.008;5.432;2023-02-15T01:55:27;63.9;;;38.9;;
59653;SDS011;66556;52.008;5.432;2023-02-15T01:57:09;67.0;;;39.0;;
59653;SDS011;66556;52.008;5.432;2023-02-15T01:58:52;68.2;;;40.1;;
59653;SDS011;66556;52.008;5.432;2023-02-15T02:02:09;69.3;;;39.81;;
59653;SDS011;66556;52.008;5.432;2023-02-15T02:03:51;69.11;;;40.6;;
59653;SDS011;66556;52.008;5.432;2023-02-15T02:05:34;71.11;;;38.81;;
59653;SDS011;66556;52.008;5.432;2023-02-15T02:07:11;64.5;;;39.0;;
59653;SDS011;66556;52.008;5.432;2023-02-15T02:10:28;67.7;;;39.71;;
59653;SDS011;66556;52.008;5.432;2023-02-15T02:12:04;54.5;;;34.4;;
59653;SDS011;66556;52.008;5.432;2023-02-15T02:13:41;63.6;;;37.71;;
59653;SDS011;66556;52.008;5.432;2023-02-15T02:17:06;68.3;;;39.6;;
59653;SDS011;66556;52.008;5.432;2023-02-15T02:18:56;65.5;;;39.4;;
59653;SDS011;66556;52.008;5.432;2023-02-15T02:21:23;65.3;;;39.5;;
59653;SDS011;66556;52.008;5.432;2023-02-15T02:23:16;68.5;;;38.6;;
59653;SDS011;66556;52.008;5.432;2023-02-15T02:26:11;89.4;;;42.8;;
59653;SDS011;66556;52.008;5.432;2023-02-15T02:29:33;118.5;;;45.9;;
59653;SDS011;66556;52.008;5.432;2023-02-15T02:32:53;125.1;;;49.6;;
59653;SDS011;66556;52.008;5.432;2023-02-15T02:35:42;119.9;;;47.1;;
59653;SDS011;66556;52.008;5.432;2023-02-15T02:37:28;133.81;;;50.4;;
59653;SDS011;66556;52.008;5.432;2023-02-15T02:39:13;114.0;;;46.7;;
59653;SDS011;66556;52.008;5.432;2023-02-15T02:41:05;137.1;;;53.3;;
59653;SDS011;66556;52.008;5.432;2023-02-15T02:42:54;145.4;;;54.7;;
59653;SDS011;66556;52.008;5.432;2023-02-15T02:46:20;139.0;;;53.4;;
59653;SDS011;66556;52.008;5.432;2023-02-15T02:48:02;138.0;;;52.4;;
59653;SDS011;66556;52.008;5.432;2023-02-15T02:49:43;105.3;;;42.5;;
59653;SDS011;66556;52.008;5.432;2023-02-15T02:51:21;99.8;;;41.6;;
59653;SDS011;66556;52.008;5.432;2023-02-15T02:54:35;61.5;;;33.8;;
59653;SDS011;66556;52.008;5.432;2023-02-15T02:56:13;65.2;;;35.0;;
59653;SDS011;66556;52.008;5.432;2023-02-15T02:57:59;74.3;;;39.5;;
59653;SDS011;66556;52.008;5.432;2023-02-15T02:59:42;65.1;;;36.6;;
59653;SDS011;66556;52.008;5.432;2023-02-15T03:03:08;51.2;;;31.5;;
59653;SDS011;66556;52.008;5.432;2023-02-15T03:04:59;56.8;;;34.71;;
59653;SDS011;66556;52.008;5.432;2023-02-15T03:06:44;60.5;;;36.4;;
59653;SDS011;66556;52.008;5.432;2023-02-15T03:08:29;59.9;;;36.81;;
59653;SDS011;66556;52.008;5.432;2023-02-15T03:10:12;69.11;;;39.71;;
59653;SDS011;66556;52.008;5.432;2023-02-15T03:13:26;64.1;;;37.5;;
59653;SDS011;66556;52.008;5.432;2023-02-15T03:15:05;55.3;;;33.71;;
59653;SDS011;66556;52.008;5.432;2023-02-15T03:16:46;44.4;;;29.2;;
59653;SDS011;66556;52.008;5.432;2023-02-15T03:18:28;52.5;;;32.8;;
59653;SDS011;66556;52.008;5.432;2023-02-15T03:21:58;53.4;;;33.3;;
59653;SDS011;66556;52.008;5.432;2023-02-15T03:23:45;63.3;;;37.1;;
59653;SDS011;66556;52.008;5.432;2023-02-15T03:25:23;51.5;;;31.7;;
59653;SDS011;66556;52.008;5.432;2023-02-15T03:27:04;50.5;;;31.0;;
59653;SDS011;66556;52.008;5.432;2023-02-15T03:28:46;57.4;;;35.0;;
59653;SDS011;66556;52.008;5.432;2023-02-15T03:32:05;56.1;;;33.71;;
59653;SDS011;66556;52.008;5.432;2023-02-15T03:33:48;60.7;;;34.6;;
59653;SDS011;66556;52.008;5.432;2023-02-15T03:35:31;58.3;;;36.0;;
59653;SDS011;66556;52.008;5.432;2023-02-15T03:37:22;44.8;;;29.7;;
59653;SDS011;66556;52.008;5.432;2023-02-15T03:41:21;40.6;;;27.7;;
59653;SDS011;66556;52.008;5.432;2023-02-15T03:43:03;41.8;;;27.8;;
59653;SDS011;66556;52.008;5.432;2023-02-15T03:44:50;56.2;;;33.71;;
59653;SDS011;66556;52.008;5.432;2023-02-15T03:46:35;50.3;;;32.5;;
59653;SDS011;66556;52.008;5.432;2023-02-15T03:48:18;43.4;;;28.7;;
59653;SDS011;66556;52.008;5.432;2023-02-15T03:49:59;39.4;;;26.1;;
59653;SDS011;66556;52.008;5.432;2023-02-15T03:53:22;46.5;;;27.4;;
59653;SDS011;66556;52.008;5.432;2023-02-15T03:55:01;37.0;;;25.9;;
59653;SDS011;66556;52.008;5.432;2023-02-15T03:56:38;36.6;;;25.7;;
59653;SDS011;66556;52.008;5.432;2023-02-15T04:02:27;40.31;;;27.4;;
59653;SDS011;66556;52.008;5.432;2023-02-15T04:05:55;40.71;;;27.4;;
59653;SDS011;66556;52.008;5.432;2023-02-15T04:07:31;37.31;;;26.2;;
59653;SDS011;66556;52.008;5.432;2023-02-15T04:10:56;36.0;;;25.6;;
59653;SDS011;66556;52.008;5.432;2023-02-15T04:12:42;41.9;;;28.4;;
59653;SDS011;66556;52.008;5.432;2023-02-15T04:17:43;44.7;;;29.6;;
59653;SDS011;66556;52.008;5.432;2023-02-15T04:25:19;38.5;;;25.3;;
59653;SDS011;66556;52.008;5.432;2023-02-15T04:28:33;43.5;;;29.0;;
59653;SDS011;66556;52.008;5.432;2023-02-15T04:30:10;39.1;;;27.3;;
59653;SDS011;66556;52.008;5.432;2023-02-15T04:31:48;43.1;;;27.8;;
59653;SDS011;66556;52.008;5.432;2023-02-15T04:35:01;39.9;;;27.7;;
59653;SDS011;66556;52.008;5.432;2023-02-15T04:36:38;36.81;;;26.8;;
59653;SDS011;66556;52.008;5.432;2023-02-15T04:38:16;37.31;;;25.8;;
59653;SDS011;66556;52.008;5.432;2023-02-15T04:41:29;41.5;;;26.9;;
59653;SDS011;66556;52.008;5.432;2023-02-15T04:43:05;38.5;;;25.7;;
59653;SDS011;66556;52.008;5.432;2023-02-15T04:44:41;38.0;;;26.4;;
59653;SDS011;66556;52.008;5.432;2023-02-15T04:46:19;34.71;;;25.0;;
59653;SDS011;66556;52.008;5.432;2023-02-15T04:49:31;39.31;;;27.1;;
59653;SDS011;66556;52.008;5.432;2023-02-15T04:51:07;36.21;;;25.7;;
59653;SDS011;66556;52.008;5.432;2023-02-15T04:52:43;38.21;;;26.3;;
59653;SDS011;66556;52.008;5.432;2023-02-15T04:55:56;39.21;;;27.2;;
59653;SDS011;66556;52.008;5.432;2023-02-15T04:57:32;38.4;;;26.7;;
59653;SDS011;66556;52.008;5.432;2023-02-15T04:59:09;37.9;;;26.3;;
59653;SDS011;66556;52.008;5.432;2023-02-15T05:02:22;36.0;;;25.5;;
59653;SDS011;66556;52.008;5.432;2023-02-15T05:03:58;41.0;;;27.4;;
59653;SDS011;66556;52.008;5.432;2023-02-15T05:05:34;36.81;;;25.7;;
59653;SDS011;66556;52.008;5.432;2023-02-15T05:07:10;46.3;;;29.9;;
59653;SDS011;66556;52.008;5.432;2023-02-15T05:10:22;41.7;;;28.2;;
59653;SDS011;66556;52.008;5.432;2023-02-15T05:11:59;40.9;;;28.3;;
59653;SDS011;66556;52.008;5.432;2023-02-15T05:13:35;38.31;;;26.3;;
59653;SDS011;66556;52.008;5.432;2023-02-15T05:16:47;44.0;;;28.9;;
59653;SDS011;66556;52.008;5.432;2023-02-15T05:18:23;53.8;;;33.4;;
59653;SDS011;66556;52.008;5.432;2023-02-15T05:19:59;48.7;;;30.5;;
59653;SDS011;66556;52.008;5.432;2023-02-15T05:23:11;49.9;;;31.0;;
59653;SDS011;66556;52.008;5.432;2023-02-15T05:28:58;47.4;;;29.9;;
59653;SDS011;66556;52.008;5.432;2023-02-15T05:30:34;41.4;;;27.7;;
59653;SDS011;66556;52.008;5.432;2023-02-15T05:33:49;42.7;;;27.4;;
59653;SDS011;66556;52.008;5.432;2023-02-15T05:35:25;44.2;;;29.0;;
59653;SDS011;66556;52.008;5.432;2023-02-15T05:37:02;42.6;;;28.4;;
59653;SDS011;66556;52.008;5.432;2023-02-15T05:38:38;40.1;;;26.1;;
59653;SDS011;66556;52.008;5.432;2023-02-15T05:41:51;37.71;;;26.0;;
59653;SDS011;66556;52.008;5.432;2023-02-15T05:45:06;49.0;;;30.3;;
59653;SDS011;66556;52.008;5.432;2023-02-15T05:48:19;39.31;;;25.6;;
59653;SDS011;66556;52.008;5.432;2023-02-15T05:49:58;36.5;;;26.1;;
59653;SDS011;66556;52.008;5.432;2023-02-15T05:51:34;39.4;;;27.2;;
59653;SDS011;66556;52.008;5.432;2023-02-15T05:53:10;38.6;;;25.8;;
59653;SDS011;66556;52.008;5.432;2023-02-15T05:56:22;40.6;;;26.7;;
59653;SDS011;66556;52.008;5.432;2023-02-15T05:57:59;49.4;;;31.4;;
59653;SDS011;66556;52.008;5.432;2023-02-15T05:59:35;46.0;;;30.2;;
59653;SDS011;66556;52.008;5.432;2023-02-15T06:02:50;47.5;;;29.8;;
59653;SDS011;66556;52.008;5.432;2023-02-15T06:04:26;46.2;;;29.6;;
59653;SDS011;66556;52.008;5.432;2023-02-15T06:06:04;43.7;;;29.7;;
59653;SDS011;66556;52.008;5.432;2023-02-15T06:09:19;41.2;;;26.7;;
59653;SDS011;66556;52.008;5.432;2023-02-15T06:10:56;39.6;;;26.8;;
59653;SDS011;66556;52.008;5.432;2023-02-15T06:12:32;43.6;;;27.7;;
59653;SDS011;66556;52.008;5.432;2023-02-15T06:14:08;39.81;;;26.7;;
59653;SDS011;66556;52.008;5.432;2023-02-15T06:17:21;46.2;;;29.4;;
59653;SDS011;66556;52.008;5.432;2023-02-15T06:18:59;42.9;;;28.7;;
59653;SDS011;66556;52.008;5.432;2023-02-15T06:20:36;37.5;;;25.6;;
59653;SDS011;66556;52.008;5.432;2023-02-15T06:23:50;36.1;;;25.1;;
59653;SDS011;66556;52.008;5.432;2023-02-15T06:25:26;38.5;;;25.8;;
59653;SDS011;66556;52.008;5.432;2023-02-15T06:27:02;38.4;;;26.6;;
59653;SDS011;66556;52.008;5.432;2023-02-15T06:30:14;39.31;;;26.5;;
59653;SDS011;66556;52.008;5.432;2023-02-15T06:31:50;40.81;;;26.6;;
59653;SDS011;66556;52.008;5.432;2023-02-15T06:33:27;36.0;;;25.0;;
59653;SDS011;66556;52.008;5.432;2023-02-15T06:35:03;43.6;;;28.6;;
59653;SDS011;66556;52.008;5.432;2023-02-15T06:38:17;49.1;;;31.6;;
59653;SDS011;66556;52.008;5.432;2023-02-15T06:39:53;40.6;;;27.3;;
59653;SDS011;66556;52.008;5.432;2023-02-15T06:41:29;40.0;;;26.5;;
59653;SDS011;66556;52.008;5.432;2023-02-15T06:44:42;42.6;;;27.9;;
59653;SDS011;66556;52.008;5.432;2023-02-15T06:46:18;43.6;;;28.5;;
59653;SDS011;66556;52.008;5.432;2023-02-15T06:47:54;40.1;;;27.6;;
59653;SDS011;66556;52.008;5.432;2023-02-15T06:51:06;44.3;;;27.9;;
59653;SDS011;66556;52.008;5.432;2023-02-15T06:52:42;42.9;;;28.4;;
59653;SDS011;66556;52.008;5.432;2023-02-15T06:54:18;38.9;;;26.6;;
59653;SDS011;66556;52.008;5.432;2023-02-15T06:55:59;40.5;;;27.0;;
59653;SDS011;66556;52.008;5.432;2023-02-15T06:59:13;45.1;;;28.2;;
59653;SDS011;66556;52.008;5.432;2023-02-15T07:00:51;42.4;;;28.3;;
59653;SDS011;66556;52.008;5.432;2023-02-15T07:02:27;42.9;;;28.1;;
59653;SDS011;66556;52.008;5.432;2023-02-15T07:05:40;39.71;;;27.5;;
59653;SDS011;66556;52.008;5.432;2023-02-15T07:07:15;38.5;;;26.7;;
59653;SDS011;66556;52.008;5.432;2023-02-15T07:08:52;40.5;;;27.4;;
59653;SDS011;66556;52.008;5.432;2023-02-15T07:13:09;43.9;;;27.6;;
59653;SDS011;66556;52.008;5.432;2023-02-15T07:14:45;46.2;;;30.9;;
59653;SDS011;66556;52.008;5.432;2023-02-15T07:17:58;43.0;;;28.0;;
59653;SDS011;66556;52.008;5.432;2023-02-15T07:19:34;45.4;;;28.4;;
59653;SDS011;66556;52.008;5.432;2023-02-15T07:21:10;42.9;;;28.5;;
59653;SDS011;66556;52.008;5.432;2023-02-15T07:24:23;42.0;;;28.1;;
59653;SDS011;66556;52.008;5.432;2023-02-15T07:25:59;42.1;;;28.7;;
59653;SDS011;66556;52.008;5.432;2023-02-15T07:27:36;42.0;;;28.6;;
59653;SDS011;66556;52.008;5.432;2023-02-15T07:30:50;41.9;;;28.6;;
59653;SDS011;66556;52.008;5.432;2023-02-15T07:32:27;41.7;;;28.7;;
59653;SDS011;66556;52.008;5.432;2023-02-15T07:34:05;44.7;;;30.0;;
59653;SDS011;66556;52.008;5.432;2023-02-15T07:35:46;43.3;;;29.0;;
59653;SDS011;66556;52.008;5.432;2023-02-15T07:39:00;48.3;;;31.3;;
59653;SDS011;66556;52.008;5.432;2023-02-15T07:40:36;41.9;;;27.9;;
59653;SDS011;66556;52.008;5.432;2023-02-15T07:42:13;40.0;;;27.4;;
59653;SDS011;66556;52.008;5.432;2023-02-15T07:45:25;42.5;;;28.5;;
59653;SDS011;66556;52.008;5.432;2023-02-15T07:47:01;42.4;;;28.5;;
59653;SDS011;66556;52.008;5.432;2023-02-15T07:48:38;39.9;;;26.9;;
59653;SDS011;66556;52.008;5.432;2023-02-15T07:51:52;45.5;;;29.0;;
59653;SDS011;66556;52.008;5.432;2023-02-15T07:53:29;42.7;;;27.4;;
59653;SDS011;66556;52.008;5.432;2023-02-15T07:55:06;42.3;;;28.9;;
59653;SDS011;66556;52.008;5.432;2023-02-15T07:56:43;41.8;;;29.6;;
59653;SDS011;66556;52.008;5.432;2023-02-15T07:59:56;41.3;;;29.4;;
59653;SDS011;66556;52.008;5.432;2023-02-15T08:01:34;40.0;;;29.3;;
59653;SDS011;66556;52.008;5.432;2023-02-15T08:03:15;45.8;;;29.2;;
59653;SDS011;66556;52.008;5.432;2023-02-15T08:06:28;45.1;;;30.0;;
59653;SDS011;66556;52.008;5.432;2023-02-15T08:08:06;44.8;;;30.2;;
59653;SDS011;66556;52.008;5.432;2023-02-15T08:09:43;45.6;;;29.7;;
59653;SDS011;66556;52.008;5.432;2023-02-15T08:11:29;46.4;;;29.7;;
59653;SDS011;66556;52.008;5.432;2023-02-15T08:14:43;47.3;;;30.4;;
59653;SDS011;66556;52.008;5.432;2023-02-15T08:16:23;44.7;;;30.2;;
59653;SDS011;66556;52.008;5.432;2023-02-15T08:18:00;44.9;;;30.4;;
59653;SDS011;66556;52.008;5.432;2023-02-15T08:19:36;42.2;;;28.8;;
59653;SDS011;66556;52.008;5.432;2023-02-15T08:22:49;42.9;;;29.6;;
59653;SDS011;66556;52.008;5.432;2023-02-15T08:24:26;45.0;;;31.1;;
59653;SDS011;66556;52.008;5.432;2023-02-15T08:26:04;43.7;;;30.2;;
59653;SDS011;66556;52.008;5.432;2023-02-15T08:29:18;45.0;;;30.5;;
59653;SDS011;66556;52.008;5.432;2023-02-15T08:31:03;42.9;;;30.0;;
59653;SDS011;66556;52.008;5.432;2023-02-15T08:32:40;42.7;;;30.2;;
59653;SDS011;66556;52.008;5.432;2023-02-15T08:37:31;44.7;;;30.4;;
59653;SDS011;66556;52.008;5.432;2023-02-15T08:39:08;46.9;;;31.7;;
59653;SDS011;66556;52.008;5.432;2023-02-15T08:40:44;44.1;;;30.9;;
59653;SDS011;66556;52.008;5.432;2023-02-15T08:43:58;43.4;;;31.4;;
59653;SDS011;66556;52.008;5.432;2023-02-15T08:45:36;44.2;;;31.6;;
59653;SDS011;66556;52.008;5.432;2023-02-15T08:47:12;48.4;;;31.9;;
59653;SDS011;66556;52.008;5.432;2023-02-15T08:50:25;44.9;;;32.4;;
59653;SDS011;66556;52.008;5.432;2023-02-15T08:52:02;46.5;;;32.1;;
59653;SDS011;66556;52.008;5.432;2023-02-15T08:53:38;44.3;;;30.6;;
59653;SDS011;66556;52.008;5.432;2023-02-15T08:55:16;44.8;;;32.3;;
59653;SDS011;66556;52.008;5.432;2023-02-15T08:58:29;44.1;;;31.2;;
59653;SDS011;66556;52.008;5.432;2023-02-15T09:00:06;43.8;;;31.6;;
59653;SDS011;66556;52.008;5.432;2023-02-15T09:01:43;44.2;;;32.1;;
59653;SDS011;66556;52.008;5.432;2023-02-15T09:04:56;44.6;;;31.3;;
59653;SDS011;66556;52.008;5.432;2023-02-15T09:06:32;45.8;;;32.5;;
59653;SDS011;66556;52.008;5.432;2023-02-15T09:08:09;49.2;;;33.21;;
59653;SDS011;66556;52.008;5.432;2023-02-15T09:11:23;48.0;;;33.0;;
59653;SDS011;66556;52.008;5.432;2023-02-15T09:13:02;47.4;;;33.5;;
59653;SDS011;66556;52.008;5.432;2023-02-15T09:14:38;48.2;;;34.1;;
59653;SDS011;66556;52.008;5.432;2023-02-15T09:16:16;47.0;;;33.21;;
59653;SDS011;66556;52.008;5.432;2023-02-15T09:19:29;44.6;;;31.8;;
59653;SDS011;66556;52.008;5.432;2023-02-15T09:21:07;46.5;;;33.21;;
59653;SDS011;66556;52.008;5.432;2023-02-15T09:22:44;46.9;;;32.8;;
59653;SDS011;66556;52.008;5.432;2023-02-15T09:26:01;52.1;;;34.6;;
59653;SDS011;66556;52.008;5.432;2023-02-15T09:27:39;48.8;;;34.21;;
59653;SDS011;66556;52.008;5.432;2023-02-15T09:29:15;50.5;;;34.4;;
59653;SDS011;66556;52.008;5.432;2023-02-15T09:30:53;49.3;;;33.8;;
59653;SDS011;66556;52.008;5.432;2023-02-15T09:34:05;46.5;;;32.3;;
59653;SDS011;66556;52.008;5.432;2023-02-15T09:35:41;49.5;;;32.5;;
59653;SDS011;66556;52.008;5.432;2023-02-15T09:37:18;46.8;;;32.9;;
59653;SDS011;66556;52.008;5.432;2023-02-15T09:40:34;44.6;;;32.4;;
59653;SDS011;66556;52.008;5.432;2023-02-15T09:42:58;46.4;;;32.21;;
59653;SDS011;66556;52.008;5.432;2023-02-15T09:45:00;47.4;;;32.9;;
59653;SDS011;66556;52.008;5.432;2023-02-15T09:47:18;47.8;;;32.6;;
59653;SDS011;66556;52.008;5.432;2023-02-15T09:49:16;46.9;;;31.5;;
59653;SDS011;66556;52.008;5.432;2023-02-15T09:51:11;47.0;;;32.6;;
59653;SDS011;66556;52.008;5.432;2023-02-15T09:53:05;42.8;;;32.1;;
59653;SDS011;66556;52.008;5.432;2023-02-15T09:55:00;45.0;;;32.21;;
59653;SDS011;66556;52.008;5.432;2023-02-15T09:56:51;47.4;;;33.71;;
59653;SDS011;66556;52.008;5.432;2023-02-15T09:58:35;45.2;;;32.6;;
59653;SDS011;66556;52.008;5.432;2023-02-15T10:00:24;44.6;;;31.1;;
59653;SDS011;66556;52.008;5.432;2023-02-15T10:02:18;44.6;;;31.5;;
59653;SDS011;66556;52.008;5.432;2023-02-15T10:06:10;47.2;;;32.9;;
59653;SDS011;66556;52.008;5.432;2023-02-15T10:08:36;44.0;;;31.9;;
59653;SDS011;66556;52.008;5.432;2023-02-15T10:10:28;45.6;;;31.7;;
59653;SDS011;66556;52.008;5.432;2023-02-15T10:12:22;45.9;;;32.21;;
59653;SDS011;66556;52.008;5.432;2023-02-15T10:14:14;45.7;;;32.1;;
59653;SDS011;66556;52.008;5.432;2023-02-15T10:16:18;45.2;;;31.4;;
59653;SDS011;66556;52.008;5.432;2023-02-15T10:19:07;44.6;;;31.8;;
59653;SDS011;66556;52.008;5.432;2023-02-15T10:20:54;43.7;;;31.0;;
59653;SDS011;66556;52.008;5.432;2023-02-15T10:22:38;44.9;;;31.3;;
59653;SDS011;66556;52.008;5.432;2023-02-15T10:24:31;42.7;;;31.1;;
59653;SDS011;66556;52.008;5.432;2023-02-15T10:26:38;44.6;;;31.3;;
59653;SDS011;66556;52.008;5.432;2023-02-15T10:28:22;46.7;;;31.5;;
59653;SDS011;66556;52.008;5.432;2023-02-15T10:30:06;44.3;;;31.0;;
59653;SDS011;66556;52.008;5.432;2023-02-15T10:31:48;41.2;;;30.8;;
59653;SDS011;66556;52.008;5.432;2023-02-15T10:35:15;43.4;;;30.7;;
59653;SDS011;66556;52.008;5.432;2023-02-15T10:37:03;44.1;;;31.2;;
59653;SDS011;66556;52.008;5.432;2023-02-15T10:39:56;41.1;;;31.5;;
59653;SDS011;66556;52.008;5.432;2023-02-15T10:43:34;41.8;;;30.9;;
59653;SDS011;66556;52.008;5.432;2023-02-15T10:45:27;43.1;;;30.9;;
59653;SDS011;66556;52.008;5.432;2023-02-15T10:47:16;43.4;;;30.7;;
59653;SDS011;66556;52.008;5.432;2023-02-15T10:49:21;43.4;;;30.7;;
59653;SDS011;66556;52.008;5.432;2023-02-15T10:51:44;45.4;;;30.1;;
59653;SDS011;66556;52.008;5.432;2023-02-15T10:53:40;44.7;;;30.3;;
59653;SDS011;66556;52.008;5.432;2023-02-15T10:56:03;43.3;;;31.3;;
59653;SDS011;66556;52.008;5.432;2023-02-15T10:57:50;42.3;;;30.2;;
59653;SDS011;66556;52.008;5.432;2023-02-15T10:59:47;42.2;;;31.5;;
59653;SDS011;66556;52.008;5.432;2023-02-15T11:01:41;49.4;;;32.21;;
59653;SDS011;66556;52.008;5.432;2023-02-15T11:03:29;45.2;;;31.8;;
59653;SDS011;66556;52.008;5.432;2023-02-15T11:05:24;43.4;;;31.5;;
59653;SDS011;66556;52.008;5.432;2023-02-15T11:07:12;44.3;;;30.3;;
59653;SDS011;66556;52.008;5.432;2023-02-15T11:10:37;42.9;;;30.1;;
59653;SDS011;66556;52.008;5.432;2023-02-15T11:12:19;42.4;;;31.5;;
59653;SDS011;66556;52.008;5.432;2023-02-15T11:14:02;43.7;;;29.6;;
59653;SDS011;66556;52.008;5.432;2023-02-15T11:15:51;41.8;;;29.8;;
59653;SDS011;66556;52.008;5.432;2023-02-15T11:17:33;40.81;;;30.8;;
59653;SDS011;66556;52.008;5.432;2023-02-15T11:20:59;44.2;;;30.5;;
59653;SDS011;66556;52.008;5.432;2023-02-15T11:22:39;42.1;;;29.9;;
59653;SDS011;66556;52.008;5.432;2023-02-15T11:24:18;42.0;;;30.8;;
59653;SDS011;66556;52.008;5.432;2023-02-15T11:25:58;41.1;;;29.6;;
59653;SDS011;66556;52.008;5.432;2023-02-15T11:29:17;42.4;;;30.0;;
59653;SDS011;66556;52.008;5.432;2023-02-15T11:31:02;41.9;;;29.9;;
59653;SDS011;66556;52.008;5.432;2023-02-15T11:32:50;42.6;;;30.5;;
59653;SDS011;66556;52.008;5.432;2023-02-15T11:34:31;44.2;;;31.6;;
59653;SDS011;66556;52.008;5.432;2023-02-15T11:37:54;41.7;;;29.4;;
59653;SDS011;66556;52.008;5.432;2023-02-15T11:39:35;42.9;;;29.6;;
59653;SDS011;66556;52.008;5.432;2023-02-15T11:41:13;46.4;;;30.6;;
59653;SDS011;66556;52.008;5.432;2023-02-15T11:42:55;47.1;;;30.9;;
59653;SDS011;66556;52.008;5.432;2023-02-15T11:44:37;41.2;;;29.7;;
59653;SDS011;66556;52.008;5.432;2023-02-15T11:47:56;41.3;;;30.0;;
59653;SDS011;66556;52.008;5.432;2023-02-15T11:49:34;44.3;;;30.2;;
59653;SDS011;66556;52.008;5.432;2023-02-15T11:51:14;43.5;;;29.4;;
59653;SDS011;66556;52.008;5.432;2023-02-15T11:54:36;42.1;;;30.9;;
59653;SDS011;66556;52.008;5.432;2023-02-15T11:56:18;43.4;;;30.5;;
59653;SDS011;66556;52.008;5.432;2023-02-15T11:57:59;41.9;;;30.3;;
59653;SDS011;66556;52.008;5.432;2023-02-15T11:59:40;45.9;;;30.7;;
59653;SDS011;66556;52.008;5.432;2023-02-15T12:01:24;48.0;;;30.0;;
59653;SDS011;66556;52.008;5.432;2023-02-15T12:04:52;43.6;;;30.4;;
59653;SDS011;66556;52.008;5.432;2023-02-15T12:06:32;42.1;;;30.0;;
59653;SDS011;66556;52.008;5.432;2023-02-15T12:08:16;41.8;;;31.1;;
59653;SDS011;66556;52.008;5.432;2023-02-15T12:09:59;43.0;;;30.7;;
59653;SDS011;66556;52.008;5.432;2023-02-15T12:13:17;42.6;;;30.2;;
59653;SDS011;66556;52.008;5.432;2023-02-15T12:14:56;44.4;;;31.3;;
59653;SDS011;66556;52.008;5.432;2023-02-15T12:16:40;41.8;;;30.4;;
59653;SDS011;66556;52.008;5.432;2023-02-15T12:18:20;44.1;;;30.5;;
59653;SDS011;66556;52.008;5.432;2023-02-15T12:20:20;45.0;;;30.9;;
59653;SDS011;66556;52.008;5.432;2023-02-15T12:23:42;41.7;;;30.4;;
59653;SDS011;66556;52.008;5.432;2023-02-15T12:25:26;42.8;;;30.1;;
59653;SDS011;66556;52.008;5.432;2023-02-15T12:27:13;45.6;;;31.4;;
59653;SDS011;66556;52.008;5.432;2023-02-15T12:28:55;43.9;;;31.0;;
59653;SDS011;66556;52.008;5.432;2023-02-15T12:32:16;44.7;;;30.8;;
59653;SDS011;66556;52.008;5.432;2023-02-15T12:33:55;42.3;;;30.0;;
59653;SDS011;66556;52.008;5.432;2023-02-15T12:35:34;43.0;;;30.7;;
59653;SDS011;66556;52.008;5.432;2023-02-15T12:37:14;44.3;;;30.6;;
59653;SDS011;66556;52.008;5.432;2023-02-15T12:41:03;42.6;;;30.5;;
59653;SDS011;66556;52.008;5.432;2023-02-15T12:42:57;43.6;;;30.6;;
59653;SDS011;66556;52.008;5.432;2023-02-15T12:44:35;43.6;;;30.6;;
59653;SDS011;66556;52.008;5.432;2023-02-15T12:46:13;47.3;;;31.6;;
59653;SDS011;66556;52.008;5.432;2023-02-15T12:48:14;45.6;;;31.6;;
59653;SDS011;66556;52.008;5.432;2023-02-15T12:50:10;44.5;;;31.3;;
59653;SDS011;66556;52.008;5.432;2023-02-15T12:51:51;45.7;;;31.6;;
59653;SDS011;66556;52.008;5.432;2023-02-15T12:55:10;44.1;;;31.4;;
59653;SDS011;66556;52.008;5.432;2023-02-15T12:56:54;46.4;;;31.4;;
59653;SDS011;66556;52.008;5.432;2023-02-15T12:58:30;45.8;;;31.2;;
59653;SDS011;66556;52.008;5.432;2023-02-15T13:00:24;42.5;;;31.3;;
59653;SDS011;66556;52.008;5.432;2023-02-15T13:02:05;43.9;;;31.1;;
59653;SDS011;66556;52.008;5.432;2023-02-15T13:05:35;43.7;;;30.6;;
59653;SDS011;66556;52.008;5.432;2023-02-15T13:07:14;45.5;;;31.7;;